Flight Track Log - Related Links

Times and Time Zones

All times are in EDT time to prevent confusion due to time zone crossing. See the UPS1121 flight status page for this flight to view local times or setup timezone preferences in your user account.

Time Position Orientation Groundspeed Altitude Reporting Facility
EDT Latitude Longitude Course Direction KTS MPH feet Rate Location/Type
Wed 10:06:12 PM 41.5920 -72.4670 128° Southeast 371 427 16,200  Level FlightAware ADS-B
Wed 10:07:07 PM 41.5380 -72.3790 129° Southeast 380 437 17,000 1,900 Climbing FlightAware ADS-B
Wed 10:07:37 PM 41.5710 -72.4330 309° West 19,500 2,769 Climbing FlightAware ADS-B
Wed 10:08:12 PM 41.4290 -72.3510 157° South 366 421 20,000 273 Climbing FlightAware ADS-B
Wed 10:09:27 PM 41.3000 -72.3500 180° South 365 420 20,000  Level FlightAware ADS-B
Wed 10:09:57 PM 41.2570 -72.3840 211° Southwest 354 407 20,000  Level FlightAware ADS-B
Wed 10:11:12 PM 41.1610 -72.4730 215° Southwest 20,000  Level FlightAware ADS-B
Wed 10:12:02 PM 41.0900 -72.5340 213° Southwest 351 404 20,000  Level FlightAware ADS-B
Wed 10:12:42 PM 41.0350 -72.5820 213° Southwest 348 400 20,000  Level FlightAware ADS-B
Wed 10:13:29 PM 40.9603 -72.6462 213° Southwest 353 406 20,000  Level FlightAware ADS-B
Wed 10:14:07 PM 40.9150 -72.6850 213° Southwest 347 399 20,000  Level FlightAware ADS-B
Wed 10:14:21 PM 40.8893 -72.7072 213° Southwest 354 407 20,000  Level FlightAware ADS-B
Wed 10:14:51 PM 40.8480 -72.7427 213° Southwest 354 407 20,000  Level FlightAware ADS-B
Wed 10:15:21 PM 40.8065 -72.7783 213° Southwest 354 407 20,000  Level FlightAware ADS-B
Wed 10:15:51 PM 40.7647 -72.8141 213° Southwest 354 407 20,000  Level FlightAware ADS-B
Wed 10:16:22 PM 40.7222 -72.8505 213° Southwest 354 407 20,000  Level FlightAware ADS-B
Wed 10:16:53 PM 40.6798 -72.8867 213° Southwest 354 407 20,000  Level FlightAware ADS-B
Wed 10:17:24 PM 40.6378 -72.9226 213° Southwest 353 406 20,000  Level FlightAware ADS-B
Wed 10:17:54 PM 40.5966 -72.9579 213° Southwest 353 406 20,000  Level FlightAware ADS-B
Wed 10:18:24 PM 40.5554 -72.9929 213° Southwest 351 404 20,000  Level FlightAware ADS-B
Wed 10:18:55 PM 40.5129 -73.0291 213° Southwest 350 403 20,000  Level FlightAware ADS-B
Wed 10:19:25 PM 40.4718 -73.0640 213° Southwest 350 403 20,000  Level FlightAware ADS-B
Wed 10:19:58 PM 40.4263 -73.1026 213° Southwest 350 403 20,000  Level FlightAware ADS-B
Wed 10:20:29 PM 40.3845 -73.1380 213° Southwest 350 403 20,000  Level FlightAware ADS-B
Wed 10:21:01 PM 40.3414 -73.1743 213° Southwest 350 403 20,000  Level FlightAware ADS-B
Wed 10:21:31 PM 40.2994 -73.2096 213° Southwest 353 406 20,000  Level FlightAware ADS-B
Wed 10:22:01 PM 40.2579 -73.2445 213° Southwest 353 406 20,000  Level FlightAware ADS-B
Wed 10:22:32 PM 40.2160 -73.2797 213° Southwest 354 407 20,000  Level FlightAware ADS-B
Wed 10:23:02 PM 40.1745 -73.3145 213° Southwest 354 407 20,000  Level FlightAware ADS-B
Wed 10:23:32 PM 40.1324 -73.3497 213° Southwest 354 407 20,000  Level FlightAware ADS-B
Wed 10:24:04 PM 40.0887 -73.3860 212° Southwest 355 409 20,000  Level FlightAware ADS-B
Wed 10:24:34 PM 40.0467 -73.4211 213° Southwest 356 410 20,000  Level FlightAware ADS-B
Wed 10:25:03 PM 40.0066 -73.4546 213° Southwest 356 410 20,000  Level FlightAware ADS-B
Wed 10:25:17 PM 39.9886 -73.4719 216° Southwest 355 409 20,000  Level FlightAware ADS-B
Wed 10:25:47 PM 39.9528 -73.5161 223° Southwest 354 407 20,000  Level FlightAware ADS-B
Wed 10:26:17 PM 39.9191 -73.5630 227° Southwest 353 406 20,000  Level FlightAware ADS-B
Wed 10:26:47 PM 39.8880 -73.6080 228° Southwest 353 406 20,000  Level FlightAware ADS-B
Wed 10:26:48 PM 39.8855 -73.6120 231° Southwest 353 406 20,000  Level FlightAware ADS-B
Wed 10:27:20 PM 39.8500 -73.6639 228° Southwest 353 406 20,000  Level FlightAware ADS-B
Wed 10:27:50 PM 39.8172 -73.7118 228° Southwest 352 405 20,000  Level FlightAware ADS-B
Wed 10:28:22 PM 39.7834 -73.7612 228° Southwest 351 404 20,000  Level FlightAware ADS-B
Wed 10:28:53 PM 39.7494 -73.8107 228° Southwest 350 403 20,000  Level FlightAware ADS-B
Wed 10:29:25 PM 39.7153 -73.8606 228° Southwest 349 402 20,000 -667 Level FlightAware ADS-B
Wed 10:29:56 PM 39.6828 -73.9084 229° Southwest 343 395 19,300 -1,645 Descending FlightAware ADS-B
Wed 10:30:27 PM 39.6498 -73.9568 228° Southwest 335 386 18,300 -1,967 Descending FlightAware ADS-B
Wed 10:30:57 PM 39.6220 -73.9980 229° Southwest 329 379 17,300 -2,229 Descending FlightAware ADS-B
Wed 10:31:02 PM 39.6140 -74.0094 228° Southwest 328 377 17,000 -2,167 Descending FlightAware ADS-B
Wed 10:31:33 PM 39.5831 -74.0545 228° Southwest 323 372 16,000 -1,967 Descending FlightAware ADS-B
Wed 10:32:03 PM 39.5533 -74.0977 228° Southwest 318 366 15,000 -2,043 Descending FlightAware ADS-B
Wed 10:32:20 PM 39.5383 -74.1213 231° Southwest 315 362 14,400 -2,100 Descending FlightAware ADS-B
Wed 10:32:23 PM 39.5357 -74.1269 239° Southwest 316 364 14,300 -1,286 Descending FlightAware ADS-B
Wed 10:32:34 PM 39.5295 -74.1451 246° West 317 365 14,100 -293 Descending FlightAware ADS-B
Wed 10:33:04 PM 39.5257 -74.2036 265° West 329 379 14,100 -98 Level FlightAware ADS-B
Wed 10:33:35 PM 39.5272 -74.2648 272° West 332 382 14,000 -98 Descending FlightAware ADS-B
Wed 10:34:05 PM 39.5285 -74.3247 272° West 331 381 14,000 -600 Level FlightAware ADS-B
Wed 10:34:35 PM 39.5297 -74.3841 272° West 321 369 13,400 -1,700 Descending FlightAware ADS-B
Wed 10:35:05 PM 39.5307 -74.4419 271° West 314 361 12,300 -2,118 Descending FlightAware ADS-B
Wed 10:35:43 PM 39.5321 -74.5114 272° West 309 356 11,000 -1,378 Descending FlightAware ADS-B
Wed 10:36:19 PM 39.5324 -74.5751 270° West 286 329 10,600 -600 Descending FlightAware ADS-B
Wed 10:36:53 PM 39.5330 -74.6281 271° West 250 288 10,300 -896 Descending FlightAware ADS-B
Wed 10:37:26 PM 39.5340 -74.6771 272° West 239 275 9,600 -1,404 Descending FlightAware ADS-B
Wed 10:37:40 PM 39.5344 -74.6965 272° West 246 283 9,200 -1,000 Descending FlightAware ADS-B
Wed 10:37:56 PM 39.5349 -74.7209 272° West 254 292 9,100 -387 Descending FlightAware ADS-B
Wed 10:38:11 PM 39.5354 -74.7441 272° West 258 297 9,000  Descending FlightAware ADS-B
Wed 10:38:27 PM 39.5358 -74.7698 271° West 258 297 9,100 188 Climbing FlightAware ADS-B
Wed 10:38:43 PM 39.5363 -74.7941 272° West 256 295 9,100  Level FlightAware ADS-B
Wed 10:39:00 PM 39.5368 -74.8202 271° West 256 295 9,100 -188 Level FlightAware ADS-B
Wed 10:39:15 PM 39.5372 -74.8438 271° West 254 292 9,000 -774 Descending FlightAware ADS-B
Wed 10:39:31 PM 39.5376 -74.8668 271° West 249 287 8,700 -1,742 Descending FlightAware ADS-B
Wed 10:39:46 PM 39.5378 -74.8896 271° West 247 284 8,100 -2,667 Descending FlightAware ADS-B
Wed 10:40:07 PM 39.5383 -74.9213 271° West 250 288 7,100 -2,743 Descending FlightAware ADS-B
Wed 10:40:21 PM 39.5387 -74.9416 271° West 247 284 6,500 -2,471 Descending FlightAware ADS-B
Wed 10:40:24 PM 39.5391 -74.9463 276° West 247 284 6,400 -1,333 Descending FlightAware ADS-B
Wed 10:40:30 PM 39.5404 -74.9548 281° West 249 287 6,300 -1,000 Descending FlightAware ADS-B
Wed 10:40:36 PM 39.5435 -74.9640 294° West 250 288 6,200 -1,091 Descending FlightAware ADS-B
Wed 10:40:41 PM 39.5466 -74.9703 303° West 251 289 6,100 -667 Descending FlightAware ADS-B
Wed 10:40:45 PM 39.5493 -74.9743 311° West 252 290 6,100  Level FlightAware ADS-B
Wed 10:40:48 PM 39.5526 -74.9783 317° Northwest 253 291 6,100  Level FlightAware ADS-B
Wed 10:40:54 PM 39.5583 -74.9841 322° Northwest 255 293 6,100  Level FlightAware ADS-B
Wed 10:41:07 PM 39.5705 -74.9954 324° Northwest 259 298 6,100 -207 Level FlightAware ADS-B
Wed 10:41:23 PM 39.5872 -75.0096 327° Northwest 259 298 6,000 -158 Descending FlightAware ADS-B
Wed 10:41:45 PM 39.6081 -75.0275 327° Northwest 241 277 6,000  Level FlightAware ADS-B
Wed 10:42:01 PM 39.6227 -75.0400 327° Northwest 226 260 6,000  Level FlightAware ADS-B
Wed 10:42:16 PM 39.6360 -75.0513 327° Northwest 214 246 6,000  Level FlightAware ADS-B
Wed 10:42:32 PM 39.6486 -75.0621 327° Northwest 202 232 6,000  Level FlightAware ADS-B
Wed 10:42:48 PM 39.6476 -75.0693 260° West 207 238 6,000  Level FlightAware ADS-B
Wed 10:43:17 PM 39.6914 -75.0741 355° North 213 245 6,000 -130 Level FlightAware ADS-B
Wed 10:43:34 PM 39.7083 -75.0758 356° North 213 245 5,900 -938 Descending FlightAware ADS-B
Wed 10:43:49 PM 39.7233 -75.0775 355° North 211 243 5,500 -1,500 Descending FlightAware ADS-B
Wed 10:44:06 PM 39.7402 -75.0795 355° North 210 242 5,100 -1,455 Descending FlightAware ADS-B
Wed 10:44:22 PM 39.7548 -75.0811 355° North 209 241 4,700 -1,548 Descending FlightAware ADS-B
Wed 10:44:37 PM 39.7698 -75.0829 355° North 209 241 4,300 -1,500 Descending FlightAware ADS-B
Wed 10:44:58 PM 39.7904 -75.0828 360° North 210 242 3,800 -1,440 Descending FlightAware ADS-B
Wed 10:45:02 PM 39.7944 -75.0807 22° Northeast 229 264 3,700 -1,333 Descending FlightAware ADS-B
Wed 10:45:07 PM 39.7989 -75.0774 29° Northeast 234 269 3,600 -600 Descending FlightAware ADS-B
Wed 10:45:12 PM 39.8031 -75.0727 41° Northeast 239 275 3,600 -1,000 Level FlightAware ADS-B
Wed 10:45:19 PM 39.8079 -75.0647 52° Northeast 243 280 3,400 -1,250 Descending FlightAware ADS-B
Wed 10:45:36 PM 39.8147 -75.0405 70° East 245 282 3,100 -727 Descending FlightAware ADS-B
Wed 10:45:52 PM 39.8179 -75.0179 80° East 248 285 3,000 -194 Descending FlightAware ADS-B
Wed 10:46:07 PM 39.8216 -74.9957 78° East 250 288 3,000  Level FlightAware ADS-B
Wed 10:46:16 PM 39.8246 -74.9815 75° East 246 283 3,000  Level FlightAware ADS-B
Wed 10:46:20 PM 39.8261 -74.9768 67° East 242 278 3,000  Level FlightAware ADS-B
Wed 10:46:23 PM 39.8279 -74.9727 60° Northeast 238 274 3,000  Level FlightAware ADS-B
Wed 10:46:26 PM 39.8298 -74.9692 55° Northeast 235 270 3,000 750 Level FlightAware ADS-B
Wed 10:46:31 PM 39.8331 -74.9643 49° Northeast 231 266 3,100 300 Climbing FlightAware ADS-B
Wed 10:46:46 PM 39.8446 -74.9496 44° Northeast 230 265 3,100 -207 Level FlightAware ADS-B
Wed 10:47:00 PM 39.8556 -74.9354 45° Northeast 229 264 3,000 -240 Descending FlightAware ADS-B
Wed 10:47:11 PM 39.8637 -74.9254 43° Northeast 225 259 3,000  Level FlightAware ADS-B
Wed 10:47:15 PM 39.8669 -74.9227 33° Northeast 221 254 3,000  Level FlightAware ADS-B
Wed 10:47:18 PM 39.8702 -74.9206 26° Northeast 216 249 3,000 1,000 Level FlightAware ADS-B
Wed 10:47:21 PM 39.8730 -74.9194 18° North 212 244 3,100 750 Climbing FlightAware ADS-B
Wed 10:47:26 PM 39.8772 -74.9185 North 206 237 3,100  Level FlightAware ADS-B
Wed 10:47:38 PM 39.8892 -74.9174 North 203 234 3,100 -207 Level FlightAware ADS-B
Wed 10:47:55 PM 39.9050 -74.9165 North 202 232 3,000 -167 Descending FlightAware ADS-B
Wed 10:48:14 PM 39.9221 -74.9174 358° North 196 226 3,000  Level FlightAware ADS-B
Wed 10:48:17 PM 39.9250 -74.9189 338° Northwest 178 205 3,000  Level FlightAware ADS-B
Wed 10:48:21 PM 39.9276 -74.9210 328° Northwest 172 198 3,000  Level FlightAware ADS-B
Wed 10:48:25 PM 39.9297 -74.9235 318° Northwest 166 191 3,000  Level FlightAware ADS-B
Wed 10:48:28 PM 39.9312 -74.9262 306° West 159 183 3,000  Level FlightAware ADS-B
Wed 10:48:32 PM 39.9322 -74.9289 296° West 154 177 3,000  Level FlightAware ADS-B
Wed 10:48:35 PM 39.9328 -74.9321 284° West 149 171 3,000  Level FlightAware ADS-B
Wed 10:48:38 PM 39.9329 -74.9348 273° West 146 168 3,000 750 Level FlightAware ADS-B
Wed 10:48:43 PM 39.9323 -74.9384 258° West 144 166 3,100  Climbing FlightAware ADS-B
Wed 10:48:53 PM 39.9302 -74.9469 252° West 144 166 3,000 -429 Descending FlightAware ADS-B
Wed 10:48:57 PM 39.9295 -74.9503 255° West 144 166 3,000  Level FlightAware ADS-B
Wed 10:49:07 PM 39.9278 -74.9590 256° West 143 165 3,000  Level FlightAware ADS-B
Wed 10:49:23 PM 39.9251 -74.9717 255° West 143 165 3,000  Level FlightAware ADS-B
Wed 10:49:39 PM 39.9223 -74.9850 255° West 142 163 3,000  Level FlightAware ADS-B
Wed 10:49:57 PM 39.9193 -75.0004 256° West 142 163 3,000  Level FlightAware ADS-B
Wed 10:50:13 PM 39.9167 -75.0139 256° West 140 161 3,000  Level FlightAware ADS-B

Login

Don't have an account? Register now (free) for customized features, flight alerts, and more!